Time;durP1;ratioP1;P1;durP2;ratioP2;P2;SDS_P1;SDS_P2;PMS_P1;PMS_P2;Temp;Humidity;BMP_temperature;BMP_pressure;BME280_temperature;BME280_humidity;BME280_pressure;Samples;Min_cycle;Max_cycle;Signal;HPM_P1;HPM_P2
2022/02/05 00:02:34;;;;;;;1.98;1.52;;;;;;;5.73;78.64;99390.82;1714276;83;21451;-71
2022/02/05 00:04:57;;;;;;;3.40;1.50;;;;;;;5.76;78.71;99386.52;1711452;83;21041;-72
2022/02/05 00:07:26;;;;;;;3.45;1.17;;;;;;;5.81;78.75;99385.02;1701256;84;21480;-71
2022/02/05 00:10:25;;;;;;;2.60;1.37;;;;;;;5.83;78.77;99384.38;1701432;84;21088;-71
2022/02/05 00:15:21;;;;;;;1.62;1.00;;;;;;;5.91;78.78;99388.89;1701487;84;21069;-71
2022/02/05 00:41:47;;;;;;;3.42;1.15;;;;;;;6.17;78.31;99398.80;1683834;84;21044;-71
2022/02/05 00:44:03;;;;;;;2.15;1.00;;;;;;;6.16;78.26;99397.13;1695175;84;21105;-71
2022/02/05 00:46:32;;;;;;;2.25;0.90;;;;;;;6.15;78.21;99414.03;1701113;84;21559;-71
2022/02/05 00:48:58;;;;;;;3.10;1.30;;;;;;;6.17;78.14;99387.38;1654921;86;21521;-71
2022/02/05 00:51:35;;;;;;;3.37;1.55;;;;;;;6.17;78.03;99472.91;1672788;85;21959;-71
2022/02/05 00:59:13;;;;;;;2.15;0.90;;;;;;;5.69;77.87;99503.22;1672807;85;21027;-71
2022/02/05 01:01:39;;;;;;;5.50;2.33;;;;;;;5.53;77.81;99528.61;1672808;85;21059;-71
2022/02/05 01:04:05;;;;;;;3.70;1.10;;;;;;;5.40;77.80;99548.06;1670154;86;21170;-71
2022/02/05 01:06:31;;;;;;;4.20;1.67;;;;;;;5.21;77.77;99567.27;1670274;86;20915;-71
2022/02/05 01:08:57;;;;;;;2.00;0.60;;;;;;;5.01;77.83;99597.87;1674592;85;21497;-72
2022/02/05 01:11:23;;;;;;;0.70;0.40;;;;;;;4.81;77.94;99586.33;1690095;84;21510;-71
2022/02/05 01:13:50;;;;;;;2.65;1.07;;;;;;;4.54;78.03;99613.16;1683841;85;21099;-72
2022/02/05 01:16:27;;;;;;;1.12;0.65;;;;;;;4.34;78.16;99611.64;1697857;84;21142;-71
2022/02/05 01:21:50;;;;;;;2.20;0.65;;;;;;;4.16;78.47;99629.25;1854678;77;22321;-71
2022/02/05 01:24:10;;;;;;;1.22;0.80;;;;;;;4.01;78.54;99638.66;1823718;78;20927;-71
2022/02/05 01:26:40;;;;;;;1.65;0.70;;;;;;;3.98;78.63;99657.39;1826749;78;21085;-71
2022/02/05 01:29:19;;;;;;;2.00;0.85;;;;;;;3.91;78.64;99651.04;1816206;78;21540;-71
2022/02/05 01:31:42;;;;;;;25.60;14.10;;;;;;;3.83;78.66;99670.26;1819506;78;21015;-71
2022/02/05 01:34:14;;;;;;;9.60;3.45;;;;;;;3.79;78.66;99683.86;1815131;78;20944;-71
2022/02/05 01:52:33;;;;;;;2.98;0.82;;;;;;;3.53;78.85;99730.62;1804523;79;21006;-71
2022/02/05 01:55:53;;;;;;;1.10;0.50;;;;;;;3.50;78.86;99750.67;1792468;78;21078;-71
2022/02/05 01:57:28;;;;;;;1.27;0.37;;;;;;;3.48;78.85;99753.92;1771762;80;20987;-71
2022/02/05 02:04:47;;;;;;;1.67;0.90;;;;;;;3.44;78.83;99767.06;1810228;79;21778;-71
2022/02/05 02:05:08;;;;;;;3.27;0.88;;;;;;;3.42;78.71;99795.34;1813228;79;21106;-71
2022/02/05 02:10:47;;;;;;;4.58;2.10;;;;;;;3.36;78.58;99816.98;1812231;79;21020;-71
2022/02/05 02:15:48;;;;;;;3.37;0.93;;;;;;;3.34;78.44;99818.91;1812100;79;21071;-71
2022/02/05 02:18:24;;;;;;;2.72;0.80;;;;;;;3.33;78.36;99822.54;1811843;78;21145;-71
2022/02/05 02:21:17;;;;;;;1.40;0.65;;;;;;;3.34;78.29;99822.86;1810763;78;21092;-71
2022/02/05 02:26:40;;;;;;;2.52;1.27;;;;;;;3.30;78.09;99827.25;1794746;79;20986;-71
2022/02/05 02:29:06;;;;;;;2.22;0.90;;;;;;;3.30;78.03;99843.06;1803369;79;21036;-71
2022/02/05 02:31:30;;;;;;;1.77;0.90;;;;;;;3.26;78.00;99853.05;1810833;79;21168;-71
2022/02/05 02:33:57;;;;;;;1.85;0.40;;;;;;;3.24;78.01;99846.22;1812372;78;21056;-71
2022/02/05 02:36:31;;;;;;;2.62;1.00;;;;;;;3.20;78.01;99854.88;1812323;78;21732;-71
2022/02/05 02:38:53;;;;;;;1.62;0.60;;;;;;;3.16;78.04;99862.73;1811305;78;20993;-71
2022/02/05 02:41:24;;;;;;;2.62;0.82;;;;;;;3.14;78.09;99863.34;1812619;78;21501;-71
2022/02/05 02:43:45;;;;;;;2.62;0.93;;;;;;;3.11;78.17;99873.31;1800309;79;21263;-71
2022/02/05 02:46:11;;;;;;;2.80;0.80;;;;;;;3.08;78.24;99881.02;1794078;80;20875;-71
2022/02/05 02:48:37;;;;;;;1.90;0.80;;;;;;;3.04;78.31;99876.98;1793940;80;21038;-70
2022/02/05 02:59:06;;;;;;;8.90;1.90;;;;;;;2.97;78.59;99910.92;1799666;79;20993;-71
2022/02/05 03:01:30;;;;;;;4.12;2.30;;;;;;;2.95;78.69;99914.19;1812009;79;20996;-71
2022/02/05 03:03:55;;;;;;;8.63;2.60;;;;;;;2.95;78.75;99919.94;1811288;78;21528;-71
2022/02/05 03:06:21;;;;;;;3.72;2.92;;;;;;;2.95;78.80;99922.57;1812990;79;21028;-71
2022/02/05 03:08:49;;;;;;;5.05;1.67;;;;;;;2.94;78.86;99924.36;1812694;78;21187;-71
2022/02/05 03:11:19;;;;;;;1.47;0.90;;;;;;;2.94;78.91;99929.62;1812830;79;21497;-71
2022/02/05 03:13:43;;;;;;;1.35;0.50;;;;;;;2.95;78.97;99929.16;1812464;79;20984;-71
2022/02/05 03:16:09;;;;;;;1.70;0.78;;;;;;;2.95;79.02;99942.32;1812953;79;21008;-71
2022/02/05 03:21:19;;;;;;;2.05;0.82;;;;;;;2.92;79.12;99934.17;1816418;78;21071;-71
2022/02/05 03:23:45;;;;;;;2.77;0.98;;;;;;;2.89;79.20;99959.94;1816792;78;20984;-71
2022/02/05 03:26:11;;;;;;;6.20;0.80;;;;;;;2.88;79.24;99964.88;1819001;78;20928;-71
2022/02/05 03:28:37;;;;;;;3.37;1.00;;;;;;;2.86;79.28;99965.48;1808315;78;20987;-71
2022/02/05 03:31:03;;;;;;;2.72;0.57;;;;;;;2.84;79.32;99966.11;1793670;80;21021;-70
2022/02/05 03:33:29;;;;;;;1.75;0.60;;;;;;;2.81;79.37;99972.95;1797872;78;21950;-71
2022/02/05 03:35:56;;;;;;;4.97;2.58;;;;;;;2.78;79.44;99970.59;1818450;78;21508;-71
2022/02/05 03:44:34;;;;;;;4.65;0.98;;;;;;;2.73;79.60;99996.45;1647760;84;21038;-70
2022/02/05 03:47:00;;;;;;;1.75;1.57;;;;;;;2.70;79.70;99990.98;1678462;85;21226;-71
2022/02/05 03:49:27;;;;;;;4.83;0.90;;;;;;;2.70;79.78;99998.03;1697130;83;21070;-70
2022/02/05 03:51:54;;;;;;;2.42;1.12;;;;;;;2.67;79.85;100012.78;1697356;84;21019;-71
2022/02/05 03:54:21;;;;;;;1.15;0.60;;;;;;;2.68;79.92;100010.48;1697185;83;21018;-71
2022/02/05 03:56:50;;;;;;;3.25;1.32;;;;;;;2.68;79.98;100024.95;1697374;84;21096;-71
2022/02/05 03:59:16;;;;;;;3.30;1.37;;;;;;;2.67;80.06;100024.63;1697484;84;21973;-71
2022/02/05 04:01:42;;;;;;;6.78;1.30;;;;;;;2.68;80.10;100022.32;1697476;84;22125;-71
2022/02/05 04:04:08;;;;;;;1.98;1.10;;;;;;;2.67;80.16;100034.68;1697549;84;21022;-71
2022/02/05 04:06:34;;;;;;;3.45;0.90;;;;;;;2.68;80.19;100035.48;1697566;84;21006;-71
2022/02/05 04:09:06;;;;;;;3.95;0.72;;;;;;;2.69;80.21;100029.27;1697532;83;21035;-71
2022/02/05 04:16:39;;;;;;;5.05;1.85;;;;;;;2.66;80.29;100038.73;1697260;84;21022;-71
2022/02/05 04:19:05;;;;;;;3.90;2.02;;;;;;;2.63;80.32;100040.32;1697258;84;21018;-71
2022/02/05 04:21:32;;;;;;;8.65;4.28;;;;;;;2.62;80.33;100049.17;1697403;84;21022;-71
2022/02/05 04:24:00;;;;;;;5.15;2.65;;;;;;;2.61;80.34;100047.48;1697236;84;21127;-70
2022/02/05 04:26:26;;;;;;;4.05;2.87;;;;;;;2.56;80.34;100049.69;1697499;84;21057;-70
2022/02/05 04:28:52;;;;;;;5.15;2.62;;;;;;;2.53;80.36;100051.59;1697482;84;21029;-70
2022/02/05 04:31:18;;;;;;;3.47;1.37;;;;;;;2.56;80.34;100060.22;1697496;84;20914;-70
2022/02/05 04:33:44;;;;;;;4.37;1.90;;;;;;;2.61;80.34;100044.86;1697519;84;20907;-71
2022/02/05 04:36:11;;;;;;;5.95;1.55;;;;;;;2.65;80.34;100056.80;1697303;84;21488;-71
2022/02/05 04:38:39;;;;;;;8.03;1.72;;;;;;;2.68;80.34;100068.39;1697481;84;20999;-71
2022/02/05 04:51:55;;;;;;;2.15;1.15;;;;;;;2.75;80.25;100074.34;1666685;85;21058;-71
2022/02/05 04:54:43;;;;;;;5.78;1.40;;;;;;;2.75;80.24;100084.03;1686798;85;21019;-71
2022/02/05 04:57:29;;;;;;;3.17;1.30;;;;;;;2.75;80.23;100084.03;1688512;84;21035;-71
2022/02/05 05:13:09;;;;;;;7.53;1.67;;;;;;;2.77;80.19;100111.08;1723481;83;21006;-71
2022/02/05 05:20:40;;;;;;;6.33;1.55;;;;;;;2.84;80.16;100116.19;1723005;83;20999;-70
2022/02/05 05:23:06;;;;;;;5.95;2.45;;;;;;;2.83;80.16;100114.03;1722127;83;21526;-71
2022/02/05 05:25:32;;;;;;;7.00;1.37;;;;;;;2.83;80.14;100114.03;1723368;82;21034;-71
2022/02/05 05:27:58;;;;;;;5.55;1.57;;;;;;;2.84;80.15;100113.56;1723322;83;21128;-71
2022/02/05 05:30:24;;;;;;;4.08;1.30;;;;;;;2.85;80.14;100119.19;1712619;82;20971;-71
2022/02/05 05:32:50;;;;;;;7.12;1.52;;;;;;;2.85;80.15;100122.63;1705035;83;21023;-71
2022/02/05 05:35:16;;;;;;;13.25;2.08;;;;;;;2.86;80.13;100126.10;1705138;84;20884;-71
2022/02/05 05:37:48;;;;;;;10.08;2.17;;;;;;;2.88;80.14;100126.83;1705834;84;21023;-71
2022/02/05 05:40:15;;;;;;;11.35;3.12;;;;;;;2.90;80.13;100122.26;1709270;83;21155;-71
2022/02/05 05:42:47;;;;;;;11.00;3.98;;;;;;;2.90;80.13;100130.16;1723123;83;21047;-70
2022/02/05 05:45:30;;;;;;;7.58;2.65;;;;;;;2.90;80.14;100128.84;1726885;82;21574;-71
2022/02/05 05:47:52;;;;;;;7.90;4.17;;;;;;;2.90;80.11;100126.20;1726182;82;21002;-71
2022/02/05 05:53:12;;;;;;;8.25;1.70;;;;;;;2.91;80.10;100135.78;1726690;83;21768;-71
2022/02/05 05:55:43;;;;;;;8.43;2.47;;;;;;;2.89;80.08;100125.84;1727949;83;21018;-71
2022/02/05 05:58:09;;;;;;;6.62;2.10;;;;;;;2.86;80.08;100156.39;1727718;83;21502;-71
2022/02/05 06:00:35;;;;;;;6.87;1.70;;;;;;;2.84;80.10;100155.69;1728089;83;21545;-71
2022/02/05 06:03:03;;;;;;;3.45;1.52;;;;;;;2.83;80.08;100157.96;1728132;83;21010;-71
2022/02/05 06:05:29;;;;;;;8.88;1.70;;;;;;;2.83;80.08;100152.70;1728108;83;21147;-71
2022/02/05 06:07:55;;;;;;;5.30;1.47;;;;;;;2.83;80.07;100154.01;1716423;82;20924;-71
2022/02/05 06:10:21;;;;;;;4.60;1.80;;;;;;;2.84;80.09;100149.11;1713137;83;21038;-71
2022/02/05 06:12:47;;;;;;;2.75;1.37;;;;;;;2.85;80.07;100156.05;1728245;83;21053;-71
2022/02/05 06:15:13;;;;;;;9.15;2.05;;;;;;;2.86;80.07;100162.97;1728110;83;21054;-70
2022/02/05 06:17:39;;;;;;;9.03;2.15;;;;;;;2.87;80.06;100160.70;1728086;83;21057;-71
2022/02/05 06:20:07;;;;;;;9.70;4.17;;;;;;;2.89;80.07;100161.39;1727774;83;21045;-71
2022/02/05 06:22:34;;;;;;;15.40;4.40;;;;;;;2.89;80.08;100167.98;1726728;82;20986;-71
2022/02/05 06:25:00;;;;;;;12.33;4.17;;;;;;;2.87;80.07;100165.97;1728052;83;21632;-71
2022/02/05 06:27:26;;;;;;;16.05;6.90;;;;;;;2.83;80.08;100161.91;1728170;81;21053;-71
2022/02/05 06:29:52;;;;;;;10.15;3.45;;;;;;;2.77;80.10;100171.64;1728139;83;21032;-71
2022/02/05 06:32:18;;;;;;;5.15;1.90;;;;;;;2.70;80.12;100166.05;1721420;82;21083;-71
2022/02/05 06:34:44;;;;;;;8.20;2.83;;;;;;;2.68;80.16;100169.73;1707995;84;21019;-71
2022/02/05 06:37:11;;;;;;;9.33;2.35;;;;;;;2.65;80.21;100165.57;1708132;83;21055;-71
2022/02/05 06:39:37;;;;;;;11.03;2.02;;;;;;;2.63;80.23;100170.14;1707758;84;21123;-71
2022/02/05 06:42:04;;;;;;;9.48;2.45;;;;;;;2.62;80.26;100180.78;1708625;83;21738;-72
2022/02/05 06:44:30;;;;;;;7.08;1.75;;;;;;;2.62;80.30;100186.05;1698318;84;21012;-71
2022/02/05 06:46:56;;;;;;;8.78;2.25;;;;;;;2.67;80.33;100183.89;1690459;84;20933;-71
2022/02/05 06:49:26;;;;;;;7.45;1.75;;;;;;;2.71;80.37;100185.31;1690578;84;21032;-71
2022/02/05 06:51:50;;;;;;;7.78;2.15;;;;;;;2.75;80.38;100191.97;1690861;84;21061;-71
2022/02/05 06:54:16;;;;;;;12.70;2.95;;;;;;;2.80;80.41;100188.50;1692666;84;21031;-71
2022/02/05 06:56:42;;;;;;;9.20;2.20;;;;;;;2.81;80.45;100195.45;1692987;83;21022;-71
2022/02/05 06:59:08;;;;;;;11.88;3.37;;;;;;;2.84;80.45;100200.45;1693036;84;20994;-71
2022/02/05 07:01:34;;;;;;;14.60;4.72;;;;;;;2.86;80.48;100205.94;1693402;83;21416;-71
2022/02/05 07:04:00;;;;;;;21.07;7.37;;;;;;;2.88;80.50;100208.46;1691848;84;21487;-71
2022/02/05 07:06:26;;;;;;;14.85;7.30;;;;;;;2.91;80.51;100208.20;1691123;83;21080;-71
2022/02/05 07:08:52;;;;;;;16.73;4.85;;;;;;;2.94;80.50;100207.48;1684079;84;20995;-71
2022/02/05 07:11:18;;;;;;;13.18;3.37;;;;;;;2.98;80.49;100212.02;1686883;84;21000;-71
2022/02/05 07:13:44;;;;;;;10.98;2.67;;;;;;;3.01;80.48;100211.75;1685688;84;21529;-71
2022/02/05 07:16:22;;;;;;;10.23;2.25;;;;;;;3.04;80.48;100200.96;1690886;84;21563;-71
2022/02/05 07:18:58;;;;;;;9.65;3.27;;;;;;;3.08;80.44;100208.97;1690226;84;21052;-71
2022/02/05 07:21:18;;;;;;;11.22;3.15;;;;;;;3.13;80.41;100212.04;1686725;84;21008;-71
2022/02/05 07:24:10;;;;;;;12.23;3.30;;;;;;;3.17;80.37;100212.62;1688834;84;21044;-71
2022/02/05 07:29:13;;;;;;;9.90;3.05;;;;;;;3.21;80.29;100216.67;1689253;85;21008;-71
2022/02/05 07:31:46;;;;;;;8.93;2.80;;;;;;;3.22;80.24;100216.56;1690593;84;21169;-72
2022/02/05 07:34:13;;;;;;;12.20;2.65;;;;;;;3.23;80.15;100227.47;1689391;84;20996;-71
2022/02/05 07:36:39;;;;;;;8.68;2.55;;;;;;;3.26;80.09;100227.20;1689417;84;21131;-71
2022/02/05 07:39:06;;;;;;;11.00;4.00;;;;;;;3.27;80.04;100220.95;1689392;85;21009;-71
2022/02/05 07:41:34;;;;;;;13.35;8.35;;;;;;;3.26;79.96;100230.31;1689075;84;21519;-71
2022/02/05 07:44:00;;;;;;;10.58;4.70;;;;;;;3.24;79.88;100229.11;1693174;84;21264;-71
2022/02/05 07:46:27;;;;;;;8.90;4.25;;;;;;;3.23;79.79;100226.63;1707024;84;20984;-71
2022/02/05 07:48:53;;;;;;;9.48;3.08;;;;;;;3.25;79.76;100236.06;1706859;84;21079;-71
2022/02/05 07:51:19;;;;;;;6.95;2.77;;;;;;;3.27;79.71;100235.95;1708063;84;21047;-71
2022/02/05 07:53:46;;;;;;;11.60;2.67;;;;;;;3.31;79.68;100237.34;1708513;82;21074;-71
2022/02/05 07:56:13;;;;;;;7.53;2.42;;;;;;;3.34;79.63;100247.14;1704698;82;21492;-71
2022/02/05 07:58:39;;;;;;;11.18;3.12;;;;;;;3.39;79.58;100238.39;1708911;82;21110;-71
2022/02/05 08:01:05;;;;;;;10.08;3.58;;;;;;;3.43;79.52;100240.28;1708751;82;21014;-71
2022/02/05 08:03:31;;;;;;;10.38;4.75;;;;;;;3.46;79.42;100242.19;1712049;82;21022;-71
2022/02/05 08:05:59;;;;;;;11.20;2.70;;;;;;;3.46;79.29;100250.09;1732497;82;21031;-71
2022/02/05 08:08:28;;;;;;;7.95;2.58;;;;;;;3.46;79.19;100238.23;1722926;82;21815;-71
2022/02/05 08:11:01;;;;;;;10.32;2.77;;;;;;;3.48;79.08;100253.42;1727124;83;20959;-71
2022/02/05 08:13:27;;;;;;;7.10;2.75;;;;;;;3.50;78.96;100256.78;1711905;83;21015;-71
2022/02/05 08:15:56;;;;;;;11.63;3.30;;;;;;;3.52;78.86;100265.38;1708262;84;21003;-71
2022/02/05 08:18:20;;;;;;;11.53;4.30;;;;;;;3.55;78.77;100263.00;1707840;83;21483;-71
2022/02/05 08:20:46;;;;;;;14.58;5.83;;;;;;;3.59;78.66;100268.34;1725059;83;21080;-71
2022/02/05 08:23:12;;;;;;;11.08;5.80;;;;;;;3.63;78.59;100274.19;1726712;83;21459;-71
2022/02/05 08:25:38;;;;;;;7.72;4.12;;;;;;;3.68;78.53;100270.70;1711402;83;21002;-72
2022/02/05 08:28:04;;;;;;;8.83;3.45;;;;;;;3.71;78.44;100274.39;1721307;83;21440;-71
2022/02/05 08:30:30;;;;;;;12.65;3.40;;;;;;;3.69;78.33;100279.81;1697531;83;21570;-72
2022/02/05 08:32:58;;;;;;;7.70;3.87;;;;;;;3.70;78.23;100274.03;1721655;83;22015;-71
2022/02/05 08:35:24;;;;;;;16.23;6.03;;;;;;;3.74;78.13;100279.41;1718649;82;21487;-71
2022/02/05 08:37:52;;;;;;;16.15;5.47;;;;;;;3.80;78.04;100286.83;1728157;83;21002;-71
2022/02/05 08:40:18;;;;;;;10.43;4.35;;;;;;;3.82;77.95;100279.12;1727981;83;21545;-71
2022/02/05 08:42:44;;;;;;;16.25;4.78;;;;;;;3.83;77.88;100286.56;1727848;83;21026;-71
2022/02/05 08:45:10;;;;;;;8.18;2.92;;;;;;;3.80;77.77;100292.09;1727994;82;21966;-71
2022/02/05 08:47:36;;;;;;;10.45;3.40;;;;;;;3.77;77.68;100286.58;1734279;82;21765;-71
2022/02/05 08:50:03;;;;;;;12.25;4.87;;;;;;;3.78;77.65;100289.58;1730719;82;21047;-71
2022/02/05 08:52:29;;;;;;;6.90;2.98;;;;;;;3.82;77.62;100283.08;1708110;84;21003;-71
2022/02/05 08:54:57;;;;;;;13.70;5.35;;;;;;;3.92;77.60;100283.12;1707772;82;21012;-72
2022/02/05 08:57:23;;;;;;;12.13;2.80;;;;;;;4.01;77.57;100285.00;1707770;84;21780;-72
2022/02/05 08:59:55;;;;;;;14.25;4.70;;;;;;;4.19;77.53;100287.36;1702111;84;21003;-72
2022/02/05 09:02:30;;;;;;;12.37;3.60;;;;;;;4.37;77.49;100289.73;1706156;83;21519;-71
2022/02/05 09:05:00;;;;;;;11.95;3.98;;;;;;;4.43;77.37;100291.02;1705454;84;21035;-71
2022/02/05 09:07:16;;;;;;;11.50;4.35;;;;;;;4.36;77.26;100290.69;1706573;84;21063;-71
2022/02/05 09:12:32;;;;;;;8.00;2.92;;;;;;;4.32;76.98;100294.59;1708180;83;20991;-72
2022/02/05 09:14:49;;;;;;;12.90;6.03;;;;;;;4.29;76.87;100296.15;1706123;84;21508;-72
2022/02/05 09:17:15;;;;;;;9.05;3.37;;;;;;;4.27;76.74;100296.78;1708227;84;21000;-72
2022/02/05 09:19:41;;;;;;;6.72;3.37;;;;;;;4.28;76.68;100294.50;1707531;84;20956;-72
2022/02/05 09:22:09;;;;;;;11.88;4.97;;;;;;;4.24;76.60;100295.73;1707711;84;21147;-71
2022/02/05 09:24:36;;;;;;;9.70;3.00;;;;;;;4.20;76.53;100296.95;1708407;84;21019;-71
2022/02/05 09:27:05;;;;;;;6.92;2.98;;;;;;;4.15;76.46;100301.78;1708305;84;20999;-72
2022/02/05 09:29:34;;;;;;;12.88;4.25;;;;;;;4.10;76.42;100312.39;1708974;82;21496;-72
2022/02/05 09:31:58;;;;;;;12.07;4.00;;;;;;;4.04;76.33;100313.76;1707995;84;21071;-71
2022/02/05 09:34:24;;;;;;;7.00;3.47;;;;;;;3.98;76.26;100314.25;1708401;82;21167;-71
2022/02/05 09:36:50;;;;;;;27.37;12.23;;;;;;;3.95;76.20;100315.36;1712350;82;20897;-70
2022/02/05 09:39:16;;;;;;;13.65;5.28;;;;;;;3.95;76.21;100311.87;1722429;83;20979;-70
2022/02/05 09:41:43;;;;;;;22.70;5.20;;;;;;;3.93;76.16;100326.54;1695468;84;21523;-70
2022/02/05 09:44:09;;;;;;;15.50;4.45;;;;;;;3.83;76.13;100326.96;1685939;84;21139;-70
2022/02/05 09:46:35;;;;;;;14.65;6.28;;;;;;;3.74;76.16;100323.76;1708176;83;21055;-70
2022/02/05 09:49:05;;;;;;;13.58;4.67;;;;;;;3.68;76.22;100326.92;1695601;84;21000;-70
2022/02/05 09:51:33;;;;;;;12.78;4.42;;;;;;;3.67;76.29;100333.62;1700582;84;21012;-70
2022/02/05 09:54:02;;;;;;;28.45;9.03;;;;;;;3.69;76.36;100331.71;1708591;84;21027;-70
2022/02/05 09:56:32;;;;;;;13.83;5.83;;;;;;;3.72;76.44;100339.36;1691048;84;21629;-70
2022/02/05 09:58:59;;;;;;;11.03;4.53;;;;;;;3.81;76.47;100339.91;1702966;84;21852;-70
2022/02/05 10:01:31;;;;;;;9.60;2.90;;;;;;;3.90;76.54;100343.11;1691423;84;21000;-70
2022/02/05 10:03:57;;;;;;;10.13;3.85;;;;;;;3.97;76.58;100338.98;1707751;84;21071;-70
2022/02/05 10:06:32;;;;;;;14.80;3.25;;;;;;;4.00;76.55;100346.64;1705309;84;21023;-70
2022/02/05 10:09:11;;;;;;;19.37;8.28;;;;;;;4.07;76.55;100358.34;1700160;83;21483;-70
2022/02/05 10:11:59;;;;;;;7.78;3.42;;;;;;;4.16;76.53;100359.36;1705740;84;26727;-70
2022/02/05 10:14:27;;;;;;;9.50;3.33;;;;;;;4.18;76.49;100355.64;1708297;84;21044;-70
2022/02/05 10:16:58;;;;;;;6.22;3.05;;;;;;;4.25;76.48;100360.75;1708356;84;20999;-70
2022/02/05 10:19:27;;;;;;;9.13;3.47;;;;;;;4.27;76.35;100367.20;1707973;83;21001;-70
2022/02/05 10:22:02;;;;;;;14.30;4.40;;;;;;;4.29;76.25;100375.34;1705534;84;21523;-70
2022/02/05 10:24:29;;;;;;;10.72;4.17;;;;;;;4.22;76.09;100379.46;1701925;84;21811;-70
2022/02/05 10:26:55;;;;;;;9.05;4.03;;;;;;;4.16;76.00;100376.03;1706389;82;21007;-70
2022/02/05 10:29:21;;;;;;;11.12;4.50;;;;;;;4.12;75.98;100374.61;1712387;82;21042;-70
2022/02/05 10:32:15;;;;;;;8.20;3.35;;;;;;;4.08;75.99;100381.14;1713185;82;21022;-70
2022/02/05 10:35:39;;;;;;;13.95;2.92;;;;;;;3.93;75.99;100376.66;1687744;84;21046;-70
2022/02/05 10:37:27;;;;;;;7.90;3.08;;;;;;;3.82;76.06;100385.11;1663943;84;21174;-70
2022/02/05 10:45:14;;;;;;;6.50;3.83;;;;;;;3.44;76.37;100394.38;1688995;84;21017;-70
2022/02/05 10:47:55;;;;;;;7.75;4.17;;;;;;;3.34;76.52;100403.15;1688298;84;21035;-70
2022/02/05 10:50:29;;;;;;;5.90;2.60;;;;;;;3.32;76.63;100405.89;1688149;85;21194;-70
2022/02/05 10:53:05;;;;;;;11.88;5.80;;;;;;;3.37;76.82;100407.69;1686807;84;21592;-71
2022/02/05 10:59:27;;;;;;;8.30;3.52;;;;;;;3.65;77.06;100408.08;1689167;85;20993;-71
2022/02/05 11:07:13;;;;;;;10.43;5.45;;;;;;;4.00;77.36;100413.44;1690803;84;21447;-71
2022/02/05 11:09:53;;;;;;;13.70;6.42;;;;;;;4.08;77.39;100426.00;1690823;84;21012;-71
2022/02/05 11:12:21;;;;;;;12.90;4.60;;;;;;;4.14;77.43;100417.56;1690041;84;21071;-71
2022/02/05 11:20:19;;;;;;;8.15;3.05;;;;;;;4.11;77.44;100416.98;1693057;83;21003;-70
2022/02/05 11:22:58;;;;;;;7.80;3.02;;;;;;;3.99;77.46;100413.55;1692422;83;20987;-70
2022/02/05 11:25:32;;;;;;;6.55;3.17;;;;;;;3.92;77.48;100407.11;1691544;84;21042;-71
2022/02/05 11:27:58;;;;;;;19.92;8.30;;;;;;;3.84;77.54;100414.81;1692515;83;21059;-71
2022/02/05 11:30:39;;;;;;;10.78;4.83;;;;;;;3.74;77.57;100406.83;1693063;83;21051;-71
2022/02/05 11:33:09;;;;;;;31.07;9.78;;;;;;;3.66;77.60;100411.89;1677837;84;21111;-71
2022/02/05 11:35:58;;;;;;;57.27;32.42;;;;;;;3.60;77.64;100416.83;1668869;85;21025;-70
2022/02/05 11:38:09;;;;;;;13.00;7.83;;;;;;;3.56;77.69;100412.77;1686457;84;21084;-70
2022/02/05 11:40:48;;;;;;;27.25;9.83;;;;;;;3.52;77.75;100407.75;1696090;83;21067;-71
2022/02/05 11:43:31;;;;;;;24.07;8.35;;;;;;;3.51;77.83;100428.50;1707312;83;23005;-70
2022/02/05 11:46:18;;;;;;;16.52;8.70;;;;;;;3.53;77.91;100427.04;1691839;83;21540;-70
2022/02/05 11:48:54;;;;;;;11.25;5.03;;;;;;;3.51;77.97;100431.14;1723201;83;20994;-70
2022/02/05 11:51:33;;;;;;;34.85;10.82;;;;;;;3.51;78.09;100439.05;1679875;85;22259;-70
2022/02/05 11:54:05;;;;;;;12.55;5.28;;;;;;;3.52;78.17;100434.11;1680036;85;21087;-70
2022/02/05 11:57:02;;;;;;;76.42;46.83;;;;;;;3.55;78.25;100420.34;1679946;84;21177;-70
2022/02/05 11:59:34;;;;;;;55.78;14.30;;;;;;;3.58;78.34;100429.31;1679125;85;20984;-72
2022/02/05 12:02:16;;;;;;;16.10;5.92;;;;;;;3.65;78.41;100425.22;1698526;83;21028;-72
2022/02/05 12:04:41;;;;;;;10.08;3.60;;;;;;;3.74;78.47;100428.41;1722007;83;21011;-72
2022/02/05 12:07:08;;;;;;;12.88;5.87;;;;;;;3.81;78.52;100430.89;1723384;83;21063;-72
2022/02/05 12:09:44;;;;;;;14.83;6.30;;;;;;;3.86;78.57;100434.85;1722966;83;21924;-72
2022/02/05 12:12:40;;;;;;;10.60;2.83;;;;;;;3.84;78.59;100443.83;1715565;83;21050;-72
2022/02/05 12:15:18;;;;;;;9.83;4.28;;;;;;;3.70;78.62;100437.53;1712433;83;21094;-73
2022/02/05 12:26:24;;;;;;;15.95;4.30;;;;;;;3.37;78.73;100450.34;1706801;84;21059;-72
2022/02/05 12:28:50;;;;;;;17.30;5.67;;;;;;;3.35;78.72;100447.81;1706831;84;21453;-73
2022/02/05 12:31:34;;;;;;;14.13;5.30;;;;;;;3.37;78.71;100447.23;1708133;83;21015;-72
2022/02/05 12:34:09;;;;;;;29.87;12.03;;;;;;;3.45;78.69;100456.66;1708194;84;21035;-72
2022/02/05 12:36:50;;;;;;;61.02;37.28;;;;;;;3.60;78.65;100461.66;1708382;84;21055;-72
2022/02/05 12:39:23;;;;;;;48.70;26.70;;;;;;;3.74;78.58;100459.58;1676926;85;21542;-72
2022/02/05 12:41:58;;;;;;;24.63;15.63;;;;;;;3.91;78.40;100454.23;1645140;87;21120;-72
2022/02/05 12:44:26;;;;;;;12.85;5.22;;;;;;;4.05;78.24;100456.57;1646132;86;21100;-72
2022/02/05 12:46:58;;;;;;;17.23;5.75;;;;;;;4.13;77.93;100450.19;1633695;87;21077;-73
2022/02/05 12:49:28;;;;;;;15.43;4.58;;;;;;;4.20;77.73;100453.98;1629485;86;21175;-73
2022/02/05 12:51:53;;;;;;;7.25;2.50;;;;;;;4.26;77.58;100448.19;1655241;86;21037;-73
2022/02/05 12:54:23;;;;;;;13.20;4.00;;;;;;;4.32;77.24;100460.05;1673390;85;21019;-72
2022/02/05 12:56:49;;;;;;;9.85;5.00;;;;;;;4.39;77.07;100464.70;1649903;87;21943;-72
2022/02/05 12:59:24;;;;;;;13.20;3.95;;;;;;;4.46;76.94;100457.93;1674922;85;21023;-72
2022/02/05 13:02:00;;;;;;;9.40;3.00;;;;;;;4.51;76.69;100470.72;1649586;85;22428;-72
2022/02/05 13:04:37;;;;;;;6.55;2.52;;;;;;;4.49;76.37;100476.16;1674667;85;21543;-72
2022/02/05 13:07:19;;;;;;;10.20;3.33;;;;;;;4.48;75.95;100471.83;1650309;87;21014;-72
2022/02/05 13:10:00;;;;;;;11.25;4.80;;;;;;;4.55;75.73;100468.19;1674879;85;21499;-72
2022/02/05 13:12:31;;;;;;;6.30;1.80;;;;;;;4.61;75.51;100466.84;1650001;86;21068;-72
2022/02/05 13:15:25;;;;;;;7.17;2.30;;;;;;;4.61;75.33;100465.52;1674590;85;21176;-72
2022/02/05 13:26:27;;;;;;;9.83;4.17;;;;;;;4.48;74.63;100488.98;1674805;85;21592;-72
2022/02/05 13:34:25;;;;;;;17.35;7.05;;;;;;;4.57;74.26;100498.44;1650382;85;21046;-72
2022/02/05 13:36:57;;;;;;;19.82;7.17;;;;;;;4.57;74.17;100507.68;1674209;85;21018;-72
2022/02/05 13:39:42;;;;;;;42.27;13.55;;;;;;;4.46;74.08;100505.45;1649814;86;21042;-72
2022/02/05 13:42:15;;;;;;;14.85;5.03;;;;;;;4.37;74.04;100509.33;1673210;85;21118;-72
2022/02/05 13:45:00;;;;;;;22.52;7.30;;;;;;;4.27;73.93;100505.30;1648606;86;21522;-72
2022/02/05 13:47:35;;;;;;;10.50;3.52;;;;;;;4.22;73.87;100507.47;1688357;84;21056;-72
2022/02/05 13:50:13;;;;;;;11.70;3.65;;;;;;;4.18;73.76;100510.51;1691978;84;21036;-72
2022/02/05 13:52:44;;;;;;;12.60;3.58;;;;;;;4.14;73.66;100508.61;1691956;84;21516;-72
2022/02/05 13:55:34;;;;;;;8.58;2.92;;;;;;;4.12;73.57;100519.75;1693084;84;21497;-72
2022/02/05 13:58:14;;;;;;;10.50;3.45;;;;;;;4.10;73.48;100525.65;1700926;83;20988;-72
2022/02/05 14:00:54;;;;;;;13.70;3.37;;;;;;;4.11;73.41;100533.94;1722175;83;21040;-72
2022/02/05 14:03:36;;;;;;;20.70;8.53;;;;;;;4.11;73.37;100535.73;1720089;83;21036;-72
2022/02/05 14:06:13;;;;;;;16.12;5.90;;;;;;;3.98;73.36;100527.95;1674525;84;21039;-72
2022/02/05 14:08:45;;;;;;;13.30;5.12;;;;;;;3.84;73.43;100533.03;1693618;83;21183;-72
2022/02/05 14:11:14;;;;;;;24.80;11.25;;;;;;;3.73;73.51;100530.92;1693324;84;21540;-72
2022/02/05 14:13:40;;;;;;;39.50;13.78;;;;;;;3.62;73.58;100542.80;1693617;84;21055;-72
2022/02/05 14:16:07;;;;;;;33.67;15.00;;;;;;;3.54;73.68;100547.36;1693352;84;21500;-72
2022/02/05 14:18:54;;;;;;;55.90;23.50;;;;;;;3.48;73.76;100543.39;1693367;84;21019;-72
2022/02/05 14:21:33;;;;;;;34.63;15.23;;;;;;;3.45;73.85;100547.59;1693223;84;21012;-72
2022/02/05 14:24:00;;;;;;;23.60;10.20;;;;;;;3.43;73.94;100548.69;1648967;87;21025;-72
2022/02/05 14:26:31;;;;;;;22.90;11.22;;;;;;;3.44;74.05;100550.38;1619967;88;21620;-72
2022/02/05 14:28:58;;;;;;;34.40;13.32;;;;;;;3.45;74.13;100556.83;1649440;87;21075;-72